Time;durP1;ratioP1;P1;durP2;ratioP2;P2;SDS_P1;SDS_P2;PMS_P1;PMS_P2;Temp;Humidity;BMP_temperature;BMP_pressure;BME280_temperature;BME280_humidity;BME280_pressure;Samples;Min_cycle;Max_cycle;Signal;HPM_P1;HPM_P2
2021/12/29 00:01:27;;;;;;;136.25;35.25;;;6.70;99.90;;;;;;5053300;28;20037;-81
2021/12/29 00:03:53;;;;;;;120.93;34.13;;;6.70;99.90;;;;;;5020364;28;20060;-81
2021/12/29 00:06:19;;;;;;;105.82;31.95;;;6.70;99.90;;;;;;5053296;28;20094;-81
2021/12/29 00:08:46;;;;;;;106.30;31.92;;;6.70;99.90;;;;;;5020231;28;20041;-81
2021/12/29 00:11:12;;;;;;;113.28;31.67;;;6.70;99.90;;;;;;5019800;28;20392;-81
2021/12/29 00:13:38;;;;;;;96.40;31.42;;;6.70;99.90;;;;;;5053325;28;20072;-81
2021/12/29 00:16:04;;;;;;;91.82;30.17;;;6.70;99.90;;;;;;5052966;28;20044;-81
2021/12/29 00:18:33;;;;;;;89.03;30.17;;;6.70;99.90;;;;;;5053200;28;20416;-81
2021/12/29 00:21:02;;;;;;;79.75;27.92;;;6.70;99.90;;;;;;5053016;28;20404;-81
2021/12/29 00:23:28;;;;;;;87.25;26.38;;;6.70;99.90;;;;;;5036371;28;20098;-81
2021/12/29 00:25:54;;;;;;;67.50;23.88;;;6.70;99.90;;;;;;5035522;28;20497;-81
2021/12/29 00:28:20;;;;;;;60.30;21.02;;;6.70;99.90;;;;;;5038930;28;20131;-81
2021/12/29 00:30:46;;;;;;;52.97;18.55;;;6.70;99.90;;;;;;5072983;28;20032;-81
2021/12/29 00:33:12;;;;;;;45.45;17.98;;;6.70;99.90;;;;;;5039636;28;20151;-81
2021/12/29 00:35:39;;;;;;;49.28;17.58;;;6.80;99.90;;;;;;5039436;28;20047;-81
2021/12/29 00:38:07;;;;;;;45.05;17.42;;;6.70;99.90;;;;;;5056298;28;20041;-81
2021/12/29 00:40:34;;;;;;;44.28;15.77;;;6.70;99.90;;;;;;5055334;28;20119;-81
2021/12/29 00:43:00;;;;;;;49.95;16.35;;;6.70;99.90;;;;;;5072665;28;20041;-81
2021/12/29 00:45:27;;;;;;;36.63;14.05;;;6.70;99.90;;;;;;5072718;28;20041;-81
2021/12/29 00:47:53;;;;;;;40.10;14.30;;;6.70;99.90;;;;;;5072393;28;20435;-81
2021/12/29 00:50:19;;;;;;;40.28;14.25;;;6.70;99.90;;;;;;5039429;28;20431;-81
2021/12/29 00:52:46;;;;;;;37.58;14.15;;;6.70;99.90;;;;;;5055824;28;20036;-81
2021/12/29 00:55:13;;;;;;;37.92;14.38;;;6.70;99.90;;;;;;5072129;28;20040;-81
2021/12/29 00:57:39;;;;;;;34.63;13.27;;;6.70;99.90;;;;;;5072126;28;20036;-81
2021/12/29 01:00:09;;;;;;;39.75;14.00;;;6.70;99.90;;;;;;5022613;28;20101;-81
2021/12/29 01:02:34;;;;;;;33.40;13.23;;;6.60;99.90;;;;;;5072368;28;20049;-81
2021/12/29 01:05:01;;;;;;;33.13;13.30;;;6.70;99.90;;;;;;5055560;28;20047;-81
2021/12/29 01:07:27;;;;;;;34.70;12.52;;;6.60;99.90;;;;;;5072154;28;20495;-81
2021/12/29 01:09:53;;;;;;;37.42;12.52;;;6.60;99.90;;;;;;5038859;28;20047;-81
2021/12/29 01:12:19;;;;;;;37.15;13.02;;;6.70;99.90;;;;;;5054760;28;20051;-81
2021/12/29 01:14:52;;;;;;;36.20;13.10;;;6.60;99.90;;;;;;5072161;28;20123;-81
2021/12/29 01:17:19;;;;;;;33.60;12.23;;;6.60;99.90;;;;;;5040465;28;20123;-81
2021/12/29 01:19:44;;;;;;;36.10;13.05;;;6.70;99.90;;;;;;5055560;28;20045;-81
2021/12/29 01:22:10;;;;;;;36.25;12.75;;;6.60;99.90;;;;;;5038601;28;20049;-81
2021/12/29 01:24:36;;;;;;;34.88;12.43;;;6.70;99.90;;;;;;5055450;28;20047;-81
2021/12/29 01:27:03;;;;;;;35.40;13.05;;;6.60;99.90;;;;;;5054429;28;20051;-81
2021/12/29 01:29:30;;;;;;;31.67;11.88;;;6.60;99.90;;;;;;5055296;28;20075;-81
2021/12/29 01:31:57;;;;;;;33.60;12.50;;;6.60;99.90;;;;;;5071610;28;20131;-81
2021/12/29 01:34:23;;;;;;;34.10;12.48;;;6.60;99.90;;;;;;5055532;28;20403;-81
2021/12/29 01:36:49;;;;;;;34.35;12.23;;;6.60;99.90;;;;;;5038667;28;20041;-81
2021/12/29 01:39:18;;;;;;;33.80;12.57;;;6.60;99.90;;;;;;5072164;28;20545;-81
2021/12/29 01:41:45;;;;;;;39.13;13.10;;;6.60;99.90;;;;;;5054301;28;20118;-81
2021/12/29 01:44:12;;;;;;;38.42;13.50;;;6.60;99.90;;;;;;5038781;28;20519;-81
2021/12/29 01:46:39;;;;;;;39.67;13.63;;;6.60;99.90;;;;;;5038337;28;20419;-81
2021/12/29 01:49:06;;;;;;;40.22;13.63;;;6.60;99.90;;;;;;5055464;28;20083;-81
2021/12/29 01:51:32;;;;;;;48.50;14.40;;;6.70;99.90;;;;;;5038525;28;20373;-81
2021/12/29 01:54:16;;;;;;;43.03;14.25;;;6.60;99.90;;;;;;5051059;28;20094;-81
2021/12/29 01:56:45;;;;;;;44.40;15.13;;;6.70;99.90;;;;;;5034221;28;20041;-81
2021/12/29 01:59:12;;;;;;;56.97;15.55;;;6.70;99.90;;;;;;5035133;28;20041;-81
2021/12/29 02:01:38;;;;;;;58.55;16.02;;;6.70;99.90;;;;;;5034807;28;20123;-81
2021/12/29 02:04:04;;;;;;;61.03;16.67;;;6.70;99.90;;;;;;5034867;28;20210;-81
2021/12/29 02:06:30;;;;;;;72.55;17.92;;;6.70;99.90;;;;;;5034973;28;20096;-81
2021/12/29 02:08:57;;;;;;;77.45;17.02;;;6.70;99.90;;;;;;5018621;28;20182;-81
2021/12/29 02:11:29;;;;;;;62.72;15.85;;;6.80;99.90;;;;;;5017940;28;20055;-81
2021/12/29 02:13:59;;;;;;;;;;;6.80;99.90;;;;;;5052219;28;20124;-81
2021/12/29 02:16:25;;;;;;;73.80;16.05;;;6.80;99.90;;;;;;5034725;28;19917;-81
2021/12/29 02:18:57;;;;;;;90.53;18.58;;;6.80;99.90;;;;;;5034937;28;20055;-81
2021/12/29 02:21:24;;;;;;;86.50;16.90;;;6.80;99.90;;;;;;5034845;28;20048;-81
2021/12/29 02:26:33;;;;;;;90.93;17.43;;;6.80;99.90;;;;;;5050468;28;20041;-81
2021/12/29 02:29:01;;;;;;;110.32;18.95;;;6.80;99.90;;;;;;5036359;28;20044;-81
2021/12/29 02:31:28;;;;;;;106.78;18.77;;;6.80;99.90;;;;;;5038784;28;20511;-81
2021/12/29 02:33:54;;;;;;;149.35;20.80;;;6.80;99.90;;;;;;5022229;28;20041;-81
2021/12/29 02:36:21;;;;;;;123.30;19.10;;;6.90;99.90;;;;;;5055182;28;20041;-81
2021/12/29 02:38:52;;;;;;;136.27;20.00;;;6.90;99.90;;;;;;5038566;28;20049;-81
2021/12/29 02:41:18;;;;;;;174.25;20.33;;;6.90;99.90;;;;;;5037495;28;20095;-81
2021/12/29 02:43:45;;;;;;;102.07;18.80;;;6.80;99.90;;;;;;5049138;28;20044;-81
2021/12/29 02:46:13;;;;;;;116.65;18.95;;;6.90;99.90;;;;;;5021738;28;20041;-81
2021/12/29 02:48:52;;;;;;;106.32;18.77;;;6.90;99.90;;;;;;5054813;28;20462;-81
2021/12/29 02:51:18;;;;;;;89.22;17.85;;;6.90;99.90;;;;;;5054713;28;20040;-81
2021/12/29 02:53:43;;;;;;;103.00;17.77;;;6.90;99.90;;;;;;5038160;28;20120;-81
2021/12/29 02:56:09;;;;;;;94.07;17.55;;;6.90;99.90;;;;;;5037241;28;20087;-81
2021/12/29 02:58:35;;;;;;;101.68;17.05;;;6.90;99.90;;;;;;5038170;28;20163;-81
2021/12/29 03:01:05;;;;;;;89.03;16.90;;;6.90;99.90;;;;;;5054454;28;20072;-81
2021/12/29 03:03:33;;;;;;;94.65;16.77;;;6.90;99.90;;;;;;5054709;28;20048;-81
2021/12/29 03:05:59;;;;;;;87.88;15.93;;;6.90;99.90;;;;;;5054255;28;20049;-81
2021/12/29 03:08:25;;;;;;;93.05;16.17;;;7.00;99.90;;;;;;5005291;28;20041;-81
2021/12/29 03:10:53;;;;;;;98.03;16.77;;;7.00;99.90;;;;;;5037109;28;20378;-81
2021/12/29 03:13:28;;;;;;;117.57;16.88;;;7.00;99.90;;;;;;5021911;28;20049;-81
2021/12/29 03:15:55;;;;;;;97.07;16.15;;;7.00;99.90;;;;;;5055250;28;20036;-81
2021/12/29 03:18:21;;;;;;;75.38;16.00;;;6.90;99.90;;;;;;5057760;28;20507;-81
2021/12/29 03:20:48;;;;;;;85.65;16.83;;;7.00;99.90;;;;;;5057552;28;20036;-81
2021/12/29 03:23:14;;;;;;;86.03;17.20;;;7.00;99.90;;;;;;5057622;28;20044;-81
2021/12/29 03:25:41;;;;;;;90.70;17.92;;;7.00;99.90;;;;;;5040180;28;20032;-81
2021/12/29 03:28:07;;;;;;;91.13;18.08;;;7.00;99.90;;;;;;5041002;28;20466;-81
2021/12/29 03:30:36;;;;;;;75.55;17.42;;;7.00;99.90;;;;;;5057312;28;20066;-81
2021/12/29 03:33:03;;;;;;;84.57;19.02;;;7.00;99.90;;;;;;5074126;28;20036;-81
2021/12/29 03:35:31;;;;;;;75.78;17.05;;;7.00;99.90;;;;;;5040653;28;20036;-81
2021/12/29 03:37:58;;;;;;;79.45;18.90;;;7.10;99.90;;;;;;5057621;28;20040;-81
2021/12/29 03:40:24;;;;;;;93.03;19.70;;;7.10;99.90;;;;;;5055978;28;20040;-81
2021/12/29 03:42:50;;;;;;;79.95;19.15;;;7.10;99.90;;;;;;5024504;28;20094;-81
2021/12/29 03:45:16;;;;;;;84.28;19.80;;;7.10;99.90;;;;;;5037126;28;20044;-81
2021/12/29 03:47:41;;;;;;;79.80;20.80;;;7.10;99.90;;;;;;5036988;28;20045;-81
2021/12/29 03:50:08;;;;;;;80.05;20.25;;;7.10;99.90;;;;;;5037318;28;20037;-81
2021/12/29 03:52:33;;;;;;;84.43;21.20;;;7.20;99.90;;;;;;5020901;28;20037;-81
2021/12/29 03:54:59;;;;;;;83.95;20.52;;;7.20;99.90;;;;;;5037023;28;20377;-81
2021/12/29 03:57:26;;;;;;;83.15;22.10;;;7.20;99.90;;;;;;5019681;28;20519;-81
2021/12/29 03:59:51;;;;;;;86.80;22.40;;;7.20;99.90;;;;;;5020652;28;20089;-81
2021/12/29 04:02:17;;;;;;;78.82;21.80;;;7.20;99.90;;;;;;5036827;28;20131;-81
2021/12/29 04:04:43;;;;;;;78.57;22.38;;;7.20;99.90;;;;;;5036953;28;20551;-81
2021/12/29 04:07:09;;;;;;;84.63;23.40;;;7.20;99.90;;;;;;5036565;28;20046;-81
2021/12/29 04:09:35;;;;;;;84.18;23.45;;;7.30;99.90;;;;;;5036799;28;20484;-81
2021/12/29 04:12:00;;;;;;;82.00;23.23;;;7.30;99.90;;;;;;5035739;28;20037;-81
2021/12/29 04:14:26;;;;;;;83.75;23.85;;;7.20;99.90;;;;;;5020227;28;20033;-81
2021/12/29 04:16:57;;;;;;;78.10;23.08;;;7.30;99.90;;;;;;5036649;28;20059;-81
2021/12/29 04:19:39;;;;;;;80.90;23.23;;;7.30;99.90;;;;;;5053291;28;20057;-81
2021/12/29 04:22:07;;;;;;;80.53;24.50;;;7.30;99.90;;;;;;5036377;28;20041;-81
2021/12/29 04:24:36;;;;;;;83.13;24.80;;;7.30;99.90;;;;;;5053087;28;20080;-81
2021/12/29 04:27:05;;;;;;;81.45;24.50;;;7.30;99.90;;;;;;5019549;28;20378;-81
2021/12/29 04:29:31;;;;;;;86.72;25.65;;;7.30;99.90;;;;;;5036748;28;20103;-81
2021/12/29 04:31:57;;;;;;;78.15;24.33;;;7.30;99.90;;;;;;5019743;28;20033;-81
2021/12/29 04:34:23;;;;;;;80.22;24.35;;;7.30;99.90;;;;;;5020225;28;20045;-81
2021/12/29 04:36:49;;;;;;;93.07;26.80;;;7.40;99.90;;;;;;5036102;28;20044;-81
2021/12/29 04:39:14;;;;;;;92.45;26.70;;;7.30;99.90;;;;;;5019789;28;20090;-81
2021/12/29 04:41:40;;;;;;;91.93;26.80;;;7.30;99.90;;;;;;5028659;28;20098;-81
2021/12/29 04:44:06;;;;;;;92.70;27.40;;;7.30;99.90;;;;;;5019535;28;20136;-81
2021/12/29 04:46:40;;;;;;;97.25;28.13;;;7.40;99.90;;;;;;5052773;28;20392;-81
2021/12/29 04:49:11;;;;;;;91.75;28.02;;;7.40;99.90;;;;;;5052953;28;20048;-81
2021/12/29 04:51:43;;;;;;;93.10;27.85;;;7.40;99.90;;;;;;5035439;28;20477;-81
2021/12/29 04:54:09;;;;;;;92.13;27.63;;;7.40;99.90;;;;;;5052565;28;20171;-81
2021/12/29 04:56:35;;;;;;;94.70;28.58;;;7.40;99.90;;;;;;5034895;28;20104;-81
2021/12/29 04:59:02;;;;;;;93.80;29.88;;;7.40;99.90;;;;;;5052694;28;20045;-81
2021/12/29 05:01:28;;;;;;;94.13;27.90;;;7.40;99.90;;;;;;5035537;28;20128;-81
2021/12/29 05:03:54;;;;;;;102.80;29.90;;;7.40;99.90;;;;;;5052264;28;20087;-81
2021/12/29 05:09:04;;;;;;;89.10;29.48;;;7.40;99.90;;;;;;5052330;28;20099;-81
2021/12/29 05:11:30;;;;;;;87.25;29.08;;;7.40;99.90;;;;;;5034913;28;20419;-81
2021/12/29 05:13:56;;;;;;;93.25;29.98;;;7.40;99.90;;;;;;5068856;28;20037;-81
2021/12/29 05:16:27;;;;;;;85.43;28.80;;;7.50;99.90;;;;;;5035552;28;20041;-81
2021/12/29 05:18:55;;;;;;;77.70;28.33;;;7.50;99.90;;;;;;5038673;28;20047;-81
2021/12/29 05:21:20;;;;;;;78.65;28.70;;;7.50;99.90;;;;;;5035486;28;20279;-81
2021/12/29 05:23:46;;;;;;;84.95;29.10;;;7.50;99.90;;;;;;5019319;28;20515;-81
2021/12/29 05:26:12;;;;;;;85.05;29.33;;;7.50;99.90;;;;;;5034390;28;20037;-81
2021/12/29 05:28:38;;;;;;;75.22;27.95;;;7.40;99.90;;;;;;5035714;28;20119;-81
2021/12/29 05:31:03;;;;;;;74.63;27.08;;;7.50;99.90;;;;;;5018946;28;20123;-81
2021/12/29 05:33:29;;;;;;;81.32;28.42;;;7.50;99.90;;;;;;5035711;28;20040;-81
2021/12/29 05:35:55;;;;;;;72.90;27.60;;;7.50;99.90;;;;;;5040260;28;20097;-81
2021/12/29 05:38:21;;;;;;;74.18;26.40;;;7.50;99.90;;;;;;5055524;28;20044;-81
2021/12/29 05:40:48;;;;;;;68.63;26.00;;;7.50;99.90;;;;;;5054284;28;20032;-82
2021/12/29 05:43:14;;;;;;;70.60;26.48;;;7.50;99.90;;;;;;5038888;28;20499;-81
2021/12/29 05:45:40;;;;;;;74.70;26.35;;;7.50;99.90;;;;;;5038525;28;20045;-81
2021/12/29 05:48:06;;;;;;;68.15;26.75;;;7.50;99.90;;;;;;5038315;28;20040;-81
2021/12/29 05:50:33;;;;;;;74.03;25.67;;;7.50;99.90;;;;;;5071604;28;20123;-81
2021/12/29 05:53:00;;;;;;;74.93;28.17;;;7.50;99.90;;;;;;5054903;28;20040;-81
2021/12/29 05:55:26;;;;;;;75.47;27.75;;;7.50;99.90;;;;;;5053862;28;20123;-81
2021/12/29 05:57:52;;;;;;;75.32;27.25;;;7.50;99.90;;;;;;5071628;28;20057;-81
2021/12/29 06:00:19;;;;;;;75.38;26.73;;;7.50;99.90;;;;;;5071723;28;20127;-81
2021/12/29 06:02:45;;;;;;;72.38;27.05;;;7.50;99.90;;;;;;5056672;28;20150;-81
2021/12/29 06:05:11;;;;;;;74.35;27.42;;;7.50;99.90;;;;;;5075827;28;20408;-82
2021/12/29 06:07:38;;;;;;;67.13;26.45;;;7.50;99.90;;;;;;5058493;28;20043;-81
2021/12/29 06:10:05;;;;;;;69.75;27.25;;;7.50;99.90;;;;;;5042220;28;20097;-81
2021/12/29 06:12:31;;;;;;;66.20;27.10;;;7.50;99.90;;;;;;5041721;28;20044;-81
2021/12/29 06:14:56;;;;;;;68.03;28.33;;;7.50;99.90;;;;;;5058609;28;20036;-81
2021/12/29 06:17:22;;;;;;;77.60;29.10;;;7.50;99.90;;;;;;5058822;28;20496;-81
2021/12/29 06:19:48;;;;;;;70.80;28.45;;;7.50;99.90;;;;;;5042224;28;20036;-81
2021/12/29 06:22:14;;;;;;;69.80;28.25;;;7.50;99.90;;;;;;5058825;28;20040;-81
2021/12/29 06:24:41;;;;;;;76.40;30.17;;;7.50;99.90;;;;;;5022040;28;20037;-81
2021/12/29 06:27:08;;;;;;;71.22;29.50;;;7.50;99.90;;;;;;5021335;28;20044;-81
2021/12/29 06:29:35;;;;;;;73.47;29.17;;;7.50;99.90;;;;;;5038790;28;20099;-82
2021/12/29 06:32:01;;;;;;;75.43;30.48;;;7.50;99.90;;;;;;5038386;28;20270;-81
2021/12/29 06:34:27;;;;;;;75.93;30.52;;;7.50;99.90;;;;;;5038824;28;20129;-81
2021/12/29 06:36:53;;;;;;;75.47;29.55;;;7.50;99.90;;;;;;5022007;28;20045;-81
2021/12/29 06:39:19;;;;;;;76.95;30.42;;;7.50;99.90;;;;;;5022446;28;20407;-81
2021/12/29 06:41:45;;;;;;;70.53;29.98;;;7.50;99.90;;;;;;5037528;28;20037;-81
2021/12/29 06:44:11;;;;;;;77.85;30.25;;;7.50;99.90;;;;;;5038399;28;20040;-81
2021/12/29 06:46:37;;;;;;;73.68;29.88;;;7.50;99.90;;;;;;5054544;28;20045;-81
2021/12/29 06:49:03;;;;;;;76.07;29.58;;;7.50;99.90;;;;;;5038307;28;20083;-81
2021/12/29 06:51:29;;;;;;;79.32;29.95;;;7.50;99.90;;;;;;5021568;28;20040;-81
2021/12/29 06:53:55;;;;;;;73.63;29.33;;;7.50;99.90;;;;;;5038324;28;20114;-81
2021/12/29 06:56:21;;;;;;;70.65;29.55;;;7.50;99.90;;;;;;5053839;28;20098;-81
2021/12/29 06:58:47;;;;;;;75.68;29.02;;;7.50;99.90;;;;;;5021787;28;20037;-81
2021/12/29 07:01:13;;;;;;;81.32;29.77;;;7.50;99.90;;;;;;5037871;28;20428;-81
2021/12/29 07:03:39;;;;;;;74.25;29.40;;;7.50;99.90;;;;;;5021681;28;20090;-81
2021/12/29 07:06:05;;;;;;;75.43;29.05;;;7.50;99.90;;;;;;5038020;28;20370;-81
2021/12/29 07:08:31;;;;;;;66.97;27.70;;;7.50;99.90;;;;;;5054911;28;20120;-81
2021/12/29 07:10:57;;;;;;;72.63;28.08;;;7.50;99.90;;;;;;5037248;28;20040;-81
2021/12/29 07:13:23;;;;;;;79.38;29.38;;;7.50;99.90;;;;;;5021459;28;20123;-81
2021/12/29 07:15:49;;;;;;;77.68;28.15;;;7.50;99.90;;;;;;5036927;28;20037;-81
2021/12/29 07:18:15;;;;;;;65.88;26.10;;;7.50;99.90;;;;;;5013651;28;20045;-81
2021/12/29 07:20:42;;;;;;;76.13;26.70;;;7.50;99.90;;;;;;5037202;28;20043;-82
2021/12/29 07:23:08;;;;;;;71.07;26.25;;;7.50;99.90;;;;;;5052916;28;20045;-82
2021/12/29 07:25:34;;;;;;;62.47;25.08;;;7.50;99.90;;;;;;5054034;28;20040;-81
2021/12/29 07:28:00;;;;;;;69.90;26.00;;;7.50;99.90;;;;;;5040936;28;20086;-81
2021/12/29 07:30:26;;;;;;;68.75;25.45;;;7.50;99.90;;;;;;5053718;28;20044;-81
2021/12/29 07:32:51;;;;;;;61.95;24.42;;;7.50;99.90;;;;;;4995133;28;20044;-81
2021/12/29 07:35:17;;;;;;;72.35;24.65;;;7.50;99.90;;;;;;5053804;28;20033;-81
2021/12/29 07:37:43;;;;;;;81.78;26.05;;;7.50;99.90;;;;;;5054240;28;20492;-82
2021/12/29 07:40:09;;;;;;;76.10;24.95;;;7.50;99.90;;;;;;5044786;28;20045;-82
2021/12/29 07:42:38;;;;;;;67.20;23.05;;;7.50;99.90;;;;;;5058488;28;20055;-81
2021/12/29 07:45:07;;;;;;;73.95;24.55;;;7.50;99.90;;;;;;5034233;28;20036;-81
2021/12/29 07:47:34;;;;;;;68.18;23.23;;;7.50;99.90;;;;;;5039831;28;20057;-81
2021/12/29 07:50:01;;;;;;;65.63;23.25;;;7.60;99.90;;;;;;5025665;28;20131;-82
2021/12/29 07:52:26;;;;;;;68.60;23.85;;;7.50;99.90;;;;;;5053141;28;20037;-81
2021/12/29 07:54:52;;;;;;;67.72;23.25;;;7.60;99.90;;;;;;5009370;28;20561;-81
2021/12/29 07:57:18;;;;;;;68.97;23.38;;;7.60;99.90;;;;;;5051754;28;20041;-81
2021/12/29 07:59:44;;;;;;;68.10;23.17;;;7.60;99.90;;;;;;5029394;28;20486;-81
2021/12/29 08:02:17;;;;;;;64.68;23.20;;;7.60;99.90;;;;;;5028215;28;20106;-81
2021/12/29 08:04:43;;;;;;;80.03;25.90;;;7.60;99.90;;;;;;5048339;28;20067;-81
2021/12/29 08:07:09;;;;;;;72.43;24.52;;;7.50;99.90;;;;;;5029926;28;20440;-81
2021/12/29 08:09:35;;;;;;;68.60;23.25;;;7.60;99.90;;;;;;5052384;28;20159;-81
2021/12/29 08:12:01;;;;;;;80.10;25.10;;;7.60;99.90;;;;;;5070063;28;20412;-81
2021/12/29 08:14:26;;;;;;;86.90;25.83;;;7.60;99.90;;;;;;5055499;28;20503;-80
2021/12/29 08:16:52;;;;;;;83.63;26.20;;;7.60;99.90;;;;;;5020852;28;20128;-80
2021/12/29 08:19:18;;;;;;;95.53;26.83;;;7.60;99.90;;;;;;5068077;28;20671;-80
2021/12/29 08:21:43;;;;;;;106.25;28.02;;;7.70;99.90;;;;;;5048618;28;20085;-81
2021/12/29 08:24:09;;;;;;;83.38;25.83;;;7.60;99.90;;;;;;5048597;28;20040;-81
2021/12/29 08:26:35;;;;;;;79.57;25.85;;;7.70;99.90;;;;;;5049438;28;20037;-81
2021/12/29 08:29:01;;;;;;;81.80;25.52;;;7.60;99.90;;;;;;5051586;28;20037;-81
2021/12/29 08:31:27;;;;;;;91.53;26.55;;;7.60;99.90;;;;;;5067446;28;20093;-81
2021/12/29 08:33:54;;;;;;;83.32;25.67;;;7.70;99.90;;;;;;5019913;28;20052;-81
2021/12/29 08:36:20;;;;;;;88.20;26.77;;;7.70;99.90;;;;;;5056764;28;20404;-81
2021/12/29 08:38:45;;;;;;;84.05;25.77;;;7.70;99.90;;;;;;5055410;28;20037;-81
2021/12/29 08:41:12;;;;;;;81.47;25.58;;;7.70;99.90;;;;;;5063939;28;20474;-81
2021/12/29 08:43:38;;;;;;;96.20;26.38;;;7.70;99.90;;;;;;5034680;28;20037;-80
2021/12/29 08:46:04;;;;;;;95.03;26.35;;;7.70;99.90;;;;;;5053468;28;20044;-81
2021/12/29 08:48:30;;;;;;;101.32;27.33;;;7.70;99.90;;;;;;5049177;28;20048;-81
2021/12/29 08:50:59;;;;;;;100.50;25.35;;;7.70;99.90;;;;;;5054592;28;20068;-81
2021/12/29 08:53:26;;;;;;;99.65;26.83;;;7.80;99.90;;;;;;5057522;28;20628;-81
2021/12/29 08:55:55;;;;;;;96.88;26.02;;;7.80;99.90;;;;;;5064859;28;20056;-82
2021/12/29 08:58:24;;;;;;;95.53;26.75;;;7.80;99.90;;;;;;5044150;28;20051;-81
2021/12/29 09:00:52;;;;;;;101.28;27.80;;;7.80;99.90;;;;;;5044063;28;20033;-81
2021/12/29 09:03:18;;;;;;;95.82;27.63;;;7.80;99.90;;;;;;5053152;28;20036;-82
2021/12/29 09:05:43;;;;;;;98.95;28.20;;;7.80;99.90;;;;;;5035884;28;20036;-81
2021/12/29 09:08:09;;;;;;;106.75;28.35;;;7.80;99.90;;;;;;5053238;28;20035;-81
2021/12/29 09:10:36;;;;;;;93.32;28.55;;;7.90;99.90;;;;;;5052726;28;20032;-82
2021/12/29 09:13:03;;;;;;;93.10;26.65;;;7.80;99.90;;;;;;5069665;28;20083;-81
2021/12/29 09:15:28;;;;;;;88.65;28.15;;;7.80;99.90;;;;;;5053187;28;20036;-81
2021/12/29 09:17:54;;;;;;;90.18;27.35;;;7.80;99.90;;;;;;5051940;28;20045;-81
2021/12/29 09:20:26;;;;;;;93.22;26.80;;;7.80;99.90;;;;;;5051798;28;20047;-81
2021/12/29 09:22:53;;;;;;;93.93;28.17;;;7.90;99.90;;;;;;5052667;28;20044;-81
2021/12/29 09:25:21;;;;;;;97.45;27.25;;;7.90;99.90;;;;;;5052327;28;20064;-81
2021/12/29 09:27:49;;;;;;;90.30;26.25;;;7.90;99.90;;;;;;5069069;28;20094;-80
2021/12/29 09:30:18;;;;;;;91.25;25.65;;;7.90;99.90;;;;;;5050880;28;20087;-80
2021/12/29 09:32:44;;;;;;;96.20;24.25;;;7.90;99.90;;;;;;5050482;28;20041;-80
2021/12/29 09:35:11;;;;;;;87.13;23.95;;;7.90;99.90;;;;;;5050325;28;20500;-81
2021/12/29 09:37:37;;;;;;;92.32;23.40;;;7.90;99.90;;;;;;5034010;28;20052;-81
2021/12/29 09:40:04;;;;;;;80.07;22.80;;;7.90;99.90;;;;;;5052215;28;20044;-81
2021/12/29 09:42:29;;;;;;;72.90;21.17;;;7.90;99.90;;;;;;5051580;28;20079;-81
2021/12/29 09:44:55;;;;;;;69.22;22.05;;;8.00;99.90;;;;;;5052240;28;21294;-80
2021/12/29 09:47:21;;;;;;;71.60;21.85;;;8.00;99.90;;;;;;5035328;28;20127;-80
2021/12/29 09:49:48;;;;;;;70.07;20.98;;;8.10;99.90;;;;;;5052174;28;20047;-81
2021/12/29 09:52:14;;;;;;;74.55;21.90;;;8.00;99.90;;;;;;5070100;28;20040;-81
2021/12/29 09:54:40;;;;;;;100.07;23.33;;;8.10;99.90;;;;;;5068939;28;20041;-81
2021/12/29 09:57:06;;;;;;;87.18;21.70;;;8.10;99.90;;;;;;5036781;28;20094;-81
2021/12/29 09:59:32;;;;;;;78.90;21.95;;;8.10;99.90;;;;;;5053725;28;20041;-81
2021/12/29 10:01:58;;;;;;;81.13;20.92;;;8.10;99.90;;;;;;5052474;28;20072;-81
2021/12/29 10:04:24;;;;;;;124.55;23.38;;;8.20;99.90;;;;;;5035158;28;20500;-81
2021/12/29 10:06:50;;;;;;;98.50;21.98;;;8.20;99.90;;;;;;5053503;28;20044;-81
2021/12/29 10:09:18;;;;;;;119.47;22.38;;;8.20;99.90;;;;;;5067490;28;20080;-81
2021/12/29 10:11:46;;;;;;;100.07;21.88;;;8.20;99.90;;;;;;5050669;28;20032;-81
2021/12/29 10:14:15;;;;;;;84.60;21.70;;;8.20;99.90;;;;;;5053242;28;20044;-81
2021/12/29 10:16:46;;;;;;;75.53;20.80;;;8.20;99.90;;;;;;5053747;28;20036;-82
2021/12/29 10:19:14;;;;;;;69.47;19.65;;;8.30;99.90;;;;;;5067225;28;20045;-82
2021/12/29 10:21:46;;;;;;;64.45;19.55;;;8.30;99.90;;;;;;5053221;28;20048;-82
2021/12/29 10:24:12;;;;;;;53.92;18.45;;;8.30;99.90;;;;;;5052006;28;20054;-81
2021/12/29 10:26:44;;;;;;;64.25;18.98;;;8.30;99.90;;;;;;5035474;28;20093;-81
2021/12/29 10:29:13;;;;;;;54.38;17.95;;;8.30;99.90;;;;;;5050182;28;20411;-81
2021/12/29 10:31:45;;;;;;;45.47;16.70;;;8.40;99.90;;;;;;5069702;28;20107;-81
2021/12/29 10:34:21;;;;;;;50.08;16.50;;;8.40;99.90;;;;;;5062012;28;20035;-81
2021/12/29 10:37:04;;;;;;;42.17;15.45;;;8.40;99.90;;;;;;5047453;28;20052;-81
2021/12/29 10:39:39;;;;;;;39.75;14.27;;;8.40;99.90;;;;;;5070968;28;20044;-81
2021/12/29 10:42:09;;;;;;;36.05;13.55;;;8.40;99.90;;;;;;5050449;28;20055;-81
2021/12/29 10:44:50;;;;;;;38.42;14.63;;;8.40;99.90;;;;;;5069348;28;20053;-81
2021/12/29 10:47:19;;;;;;;36.72;14.15;;;8.40;99.90;;;;;;5048849;28;20139;-81
2021/12/29 10:49:52;;;;;;;32.38;13.55;;;8.40;99.90;;;;;;5048471;28;20041;-81
2021/12/29 10:52:28;;;;;;;29.55;12.80;;;8.40;99.90;;;;;;5073454;28;20035;-80
2021/12/29 10:54:53;;;;;;;36.97;13.60;;;8.40;99.90;;;;;;5073449;28;20070;-81
2021/12/29 10:57:19;;;;;;;33.33;12.93;;;8.40;99.90;;;;;;5056440;28;20048;-81
2021/12/29 10:59:46;;;;;;;34.60;14.45;;;8.40;99.90;;;;;;5039620;28;20044;-81
2021/12/29 11:02:11;;;;;;;33.55;13.88;;;8.40;99.90;;;;;;5039614;28;20048;-81
2021/12/29 11:04:38;;;;;;;36.60;14.40;;;8.40;99.90;;;;;;5055897;28;20395;-81
2021/12/29 11:07:04;;;;;;;35.90;14.77;;;8.50;99.90;;;;;;5056017;28;20045;-82
2021/12/29 11:09:34;;;;;;;38.88;15.43;;;8.50;99.90;;;;;;5068242;28;20091;-82
2021/12/29 11:12:08;;;;;;;41.05;16.35;;;8.50;99.90;;;;;;5068700;28;20076;-82
2021/12/29 11:14:34;;;;;;;41.22;16.77;;;8.40;99.90;;;;;;5071761;28;20124;-81
2021/12/29 11:17:22;;;;;;;42.10;17.38;;;8.40;99.90;;;;;;5053359;28;20103;-81
2021/12/29 11:19:57;;;;;;;41.25;16.98;;;8.40;99.90;;;;;;5070943;28;20492;-81
2021/12/29 11:22:29;;;;;;;40.47;17.27;;;8.50;99.90;;;;;;5048337;28;20041;-81
2021/12/29 11:24:57;;;;;;;40.88;17.85;;;8.50;99.90;;;;;;5058612;28;20036;-81
2021/12/29 11:27:24;;;;;;;38.65;17.58;;;8.50;99.90;;;;;;5050055;28;20080;-81
2021/12/29 11:29:54;;;;;;;41.53;18.63;;;8.50;99.90;;;;;;5038133;28;20044;-81
2021/12/29 11:32:30;;;;;;;40.17;18.55;;;8.60;99.90;;;;;;5050455;28;20128;-81
2021/12/29 11:35:08;;;;;;;39.53;18.77;;;8.60;99.90;;;;;;5048762;28;20040;-81
2021/12/29 11:37:36;;;;;;;36.00;17.88;;;8.60;99.90;;;;;;5066505;28;20041;-81
2021/12/29 11:40:06;;;;;;;39.05;17.85;;;8.60;99.90;;;;;;5060477;28;20076;-81
2021/12/29 11:42:31;;;;;;;36.35;16.88;;;8.60;99.90;;;;;;5038953;28;20325;-81
2021/12/29 11:44:57;;;;;;;38.40;17.55;;;8.70;99.90;;;;;;5036719;28;20041;-81
2021/12/29 11:47:23;;;;;;;38.50;18.20;;;8.70;99.90;;;;;;5039158;28;20470;-81
2021/12/29 11:49:49;;;;;;;43.97;18.27;;;8.70;99.90;;;;;;5056077;28;20033;-81
2021/12/29 11:52:18;;;;;;;37.85;18.35;;;8.80;99.90;;;;;;5052094;28;20079;-82
2021/12/29 11:54:46;;;;;;;39.53;18.90;;;8.80;99.90;;;;;;5047676;28;20086;-81
2021/12/29 11:57:14;;;;;;;41.30;18.25;;;8.80;99.90;;;;;;5061137;28;20053;-81
2021/12/29 11:59:41;;;;;;;46.90;18.60;;;8.80;99.90;;;;;;5058626;28;20083;-81
2021/12/29 12:02:06;;;;;;;38.55;17.75;;;8.80;99.90;;;;;;5044516;28;20089;-81
2021/12/29 12:04:33;;;;;;;39.78;17.95;;;8.80;99.90;;;;;;5047046;28;20036;-81
2021/12/29 12:07:02;;;;;;;44.95;18.00;;;8.80;99.90;;;;;;5058410;28;20609;-82
2021/12/29 12:09:28;;;;;;;48.60;18.58;;;8.80;99.90;;;;;;5070832;28;20123;-82
2021/12/29 12:12:00;;;;;;;42.90;17.70;;;8.80;99.90;;;;;;5041267;28;20116;-81
2021/12/29 12:14:33;;;;;;;43.15;18.08;;;8.80;99.90;;;;;;5051702;28;20041;-81
2021/12/29 12:17:00;;;;;;;42.75;17.05;;;8.80;99.90;;;;;;5055000;28;20535;-81
2021/12/29 12:19:29;;;;;;;43.33;17.58;;;8.80;99.90;;;;;;5053289;28;20041;-81
2021/12/29 12:22:13;;;;;;;48.40;17.85;;;8.70;99.90;;;;;;5036317;28;20045;-81
2021/12/29 12:24:49;;;;;;;41.08;17.00;;;8.70;99.90;;;;;;5036640;28;20041;-81
2021/12/29 12:27:30;;;;;;;35.75;16.33;;;8.80;99.90;;;;;;5035307;28;20048;-81
2021/12/29 12:30:10;;;;;;;42.72;16.77;;;8.70;99.90;;;;;;5052347;28;20037;-81
2021/12/29 12:32:43;;;;;;;37.55;16.38;;;8.70;99.90;;;;;;5036095;28;20075;-81
2021/12/29 12:35:11;;;;;;;37.03;16.83;;;8.80;99.90;;;;;;5052650;28;20044;-81
2021/12/29 12:37:45;;;;;;;39.42;17.65;;;8.70;99.90;;;;;;5052887;28;20078;-81
2021/12/29 12:40:22;;;;;;;39.53;17.20;;;8.80;99.90;;;;;;5035804;28;20170;-81
2021/12/29 12:43:11;;;;;;;42.22;17.48;;;8.80;99.90;;;;;;5052965;28;20037;-81